Watauga, Texas
Current Conditions -  °F | °C
As of 5:53 AM on Monday 22 Dec 2014 (Local Time) from KFTW Reporting Station
Clear Clear  
Wind Chill: 50°   Ceiling: Unl
Heat Index: 50°   Visibility: 7mi
Dew Point: 47°   Wind: 9mph
Humidity: 89%   Direction: 180°S
Pressure: 29.59"   Gusts: NA
Location:  32.8687°N, 97.2516°W
Report Text: KFTW 221153Z 18008KT 7SM CLR 10/08 A2959 RMK AO2 SLP017 T01000083 10117 20100 58006
Loading
Personal Weather Stations






























Interactive Weather Map New forecast layout! Learn more

10-Day Weather Forecast

Advertisements
Track Severe Weather on mobile